createdAt,value
2017-10-05T00:00:51.744Z,93.7
2017-10-05T00:01:51.410Z,94.27
2017-10-05T00:02:51.713Z,93.31
2017-10-05T00:03:51.699Z,92.55
2017-10-05T00:04:51.358Z,91.88
2017-10-05T00:05:51.661Z,91.88
2017-10-05T00:06:51.326Z,90.83
2017-10-05T00:07:51.310Z,90.07
2017-10-05T00:08:51.613Z,89.69
2017-10-05T00:09:51.600Z,89.88
2017-10-05T00:10:51.466Z,88.69
2017-10-05T00:11:51.250Z,88.35
2017-10-05T00:12:51.231Z,87.59
2017-10-05T00:13:51.537Z,86.78
2017-10-05T00:14:51.516Z,86.11
2017-10-05T00:15:51.181Z,86.4
2017-10-05T00:16:51.490Z,85.73
2017-10-05T00:17:51.478Z,85.16
2017-10-05T00:18:51.461Z,84.88
2017-10-05T00:19:51.115Z,84.59
2017-10-05T00:20:51.101Z,84.01
2017-10-05T00:21:51.082Z,83.73
2017-10-05T00:22:51.391Z,83.44
2017-10-05T00:23:51.375Z,83.54
2017-10-05T00:24:51.359Z,82.97
2017-10-05T00:25:51.022Z,82.3
2017-10-05T00:26:51.327Z,82.87
2017-10-05T00:27:51.312Z,82.87
2017-10-05T00:28:51.297Z,82.59
2017-10-05T00:30:28.070Z,82.11
2017-10-05T00:30:51.260Z,82.2
2017-10-05T00:31:51.244Z,82.11
2017-10-05T00:32:50.908Z,82.01
2017-10-05T00:33:50.894Z,81.35
2017-10-05T00:34:50.873Z,81.15
2017-10-05T00:35:51.177Z,81.15
2017-10-05T00:36:51.166Z,81.25
2017-10-05T00:37:50.825Z,80.77
2017-10-05T00:38:50.811Z,80.49
2017-10-05T00:39:50.795Z,80.58
2017-10-05T00:40:50.776Z,80.01
2017-10-05T00:41:51.077Z,80.3
2017-10-05T00:42:50.743Z,79.82
2017-10-05T00:43:51.045Z,79.35
2017-10-05T00:44:50.711Z,79.44
2017-10-05T00:45:51.016Z,79.53
2017-10-05T00:46:50.995Z,78.96
2017-10-05T00:47:50.661Z,78.3
2017-10-05T00:48:50.642Z,78.86
2017-10-05T00:49:50.954Z,78.39
2017-10-05T00:50:50.935Z,78.58
2017-10-05T00:51:50.919Z,78.1
2017-10-05T00:52:50.906Z,78.01
2017-10-05T00:53:50.885Z,77.91
2017-10-05T00:54:50.869Z,78.01
2017-10-05T00:55:50.854Z,77.06
2017-10-05T00:56:50.835Z,77.53
2017-10-05T00:57:50.816Z,77.82
2017-10-05T00:58:50.483Z,77.25
2017-10-05T00:59:50.794Z,76.86
2017-10-05T01:00:50.770Z,76.67
2017-10-05T01:01:50.431Z,76.77
2017-10-05T01:02:50.419Z,76.67
2017-10-05T01:03:50.718Z,76.86
2017-10-05T01:04:50.382Z,76.1
2017-10-05T01:05:50.693Z,76.1
2017-10-05T01:06:50.680Z,76.29
2017-10-05T01:07:50.654Z,76.01
2017-10-05T01:08:50.645Z,75.62
2017-10-05T01:09:50.300Z,75.72
2017-10-05T01:10:50.284Z,75.72
2017-10-05T01:11:50.267Z,75.91
2017-10-05T01:12:50.572Z,75.53
2017-10-05T01:13:50.558Z,75.91
2017-10-05T01:14:50.540Z,75.34
2017-10-05T01:15:50.212Z,74.96
2017-10-05T01:16:50.511Z,75.05
2017-10-05T01:17:50.490Z,75.24
2017-10-05T01:18:50.473Z,75.15
2017-10-05T01:19:50.459Z,75.24
2017-10-05T01:20:50.441Z,74.67
2017-10-05T01:21:50.104Z,74.96
2017-10-05T01:22:50.407Z,74.77
2017-10-05T01:23:50.394Z,74.67
2017-10-05T01:24:50.054Z,74.38
2017-10-05T01:25:50.354Z,74.57
2017-10-05T01:26:50.342Z,74.01
2017-10-05T01:27:50.324Z,74.29
2017-10-05T01:28:50.317Z,74.48
2017-10-05T01:29:49.975Z,74.29
2017-10-05T01:30:50.281Z,74.01
2017-10-05T01:31:50.262Z,74.38
2017-10-05T01:32:50.255Z,74.01
2017-10-05T01:33:49.905Z,73.52
2017-10-05T01:34:49.892Z,73.52
2017-10-05T01:35:49.874Z,73.43
2017-10-05T01:36:49.854Z,73.33
2017-10-05T01:37:50.163Z,73.33
2017-10-05T01:38:49.827Z,73.14
2017-10-05T01:39:50.127Z,73.33
2017-10-05T01:40:50.119Z,73.62
2017-10-05T01:41:50.094Z,73.52
2017-10-05T01:42:50.081Z,73.33
2017-10-05T01:43:50.063Z,72.96
2017-10-05T01:44:49.728Z,73.14
2017-10-05T01:45:50.031Z,73.14
2017-10-05T01:46:49.692Z,73.33
2017-10-05T01:47:49.677Z,72.96
2017-10-05T01:48:49.987Z,73.52
2017-10-05T01:49:49.968Z,72.96
2017-10-05T01:50:49.950Z,73.43
2017-10-05T01:51:49.611Z,73.43
2017-10-05T01:52:49.922Z,73.72
2017-10-05T01:53:49.900Z,74.01
2017-10-05T01:54:49.572Z,74.38
2017-10-05T01:55:49.542Z,74.57
2017-10-05T01:56:49.539Z,74.86
2017-10-05T01:57:49.511Z,75.43
2017-10-05T01:58:49.522Z,75.62
2017-10-05T01:59:49.475Z,77.34
2017-10-05T02:00:49.785Z,77.34
2017-10-05T02:01:49.455Z,78.01
2017-10-05T02:02:49.785Z,78.49
2017-10-05T02:03:49.412Z,79.15
2017-10-05T02:04:49.739Z,79.06
2017-10-05T02:05:49.705Z,80.68
2017-10-05T02:06:49.707Z,79.72
2017-10-05T02:07:49.344Z,81.15
2017-10-05T02:08:49.657Z,82.2
2017-10-05T02:09:49.317Z,82.87
2017-10-05T02:10:49.299Z,83.64
2017-10-05T02:11:49.280Z,82.68
2017-10-05T02:12:49.584Z,81.92
2017-10-05T02:13:49.248Z,82.01
2017-10-05T02:14:49.239Z,81.15
2017-10-05T02:15:49.215Z,80.39
2017-10-05T02:16:49.525Z,80.96
2017-10-05T02:17:49.509Z,81.15
2017-10-05T02:18:49.488Z,81.15
2017-10-05T02:19:49.159Z,81.63
2017-10-05T02:20:49.132Z,81.25
2017-10-05T02:21:49.439Z,81.35
2017-10-05T02:22:49.425Z,80.96
2017-10-05T02:23:49.085Z,80.3
2017-10-05T02:24:49.074Z,80.49
2017-10-05T02:25:49.377Z,80.49
2017-10-05T02:26:49.354Z,80.11
2017-10-05T02:27:49.020Z,80.11
2017-10-05T02:28:49.323Z,79.63
2017-10-05T02:29:48.989Z,79.82
2017-10-05T02:30:49.300Z,81.06
2017-10-05T02:31:49.278Z,81.25
2017-10-05T02:32:49.264Z,81.06
2017-10-05T02:33:49.242Z,81.06
2017-10-05T02:34:48.904Z,81.06
2017-10-05T02:35:48.888Z,80.49
2017-10-05T02:36:49.191Z,79.82
2017-10-05T02:37:49.176Z,79.35
2017-10-05T02:38:48.837Z,78.77
2017-10-05T02:39:48.821Z,79.35
2017-10-05T02:40:48.803Z,78.01
2017-10-05T02:41:48.791Z,77.15
2017-10-05T02:42:49.105Z,76.57
2017-10-05T02:43:48.757Z,75.62
2017-10-05T02:44:48.741Z,75.81
2017-10-05T02:45:48.725Z,75.24
2017-10-05T02:46:48.706Z,74.67
2017-10-05T02:47:49.016Z,74.67
2017-10-05T02:48:48.684Z,74.29
2017-10-05T02:49:48.979Z,73.81
2017-10-05T02:50:48.643Z,74.1
2017-10-05T02:51:48.945Z,74.1
2017-10-05T02:52:48.933Z,74.01
2017-10-05T02:53:48.593Z,73.91
2017-10-05T02:54:48.575Z,73.81
2017-10-05T02:55:48.886Z,73.43
2017-10-05T02:56:48.883Z,72.96
2017-10-05T02:57:48.527Z,73.14
2017-10-05T02:58:48.510Z,72.67
2017-10-05T02:59:48.494Z,72.48
2017-10-05T03:00:48.800Z,72.67
2017-10-05T03:01:48.784Z,72.28
2017-10-05T03:02:48.444Z,72.28
2017-10-05T03:03:48.431Z,72.19
2017-10-05T03:04:48.421Z,71.52
2017-10-05T03:05:48.397Z,71.91
2017-10-05T03:06:48.701Z,71.23
2017-10-05T03:07:48.361Z,71.04
2017-10-05T03:08:48.346Z,70.76
2017-10-05T03:09:48.328Z,71.14
2017-10-05T03:10:48.633Z,71.33
2017-10-05T03:11:48.615Z,71.14
2017-10-05T03:12:48.602Z,70.67
2017-10-05T03:13:48.262Z,70.67
2017-10-05T03:14:48.565Z,70.38
2017-10-05T03:15:48.551Z,70.28
2017-10-05T03:16:48.214Z,70.19
2017-10-05T03:17:48.199Z,70.38
2017-10-05T03:18:48.498Z,70.28
2017-10-05T03:19:48.161Z,70.67
2017-10-05T03:20:48.467Z,70.28
2017-10-05T03:21:48.454Z,70.47
2017-10-05T03:22:48.113Z,70.09
2017-10-05T03:23:48.097Z,70.19
2017-10-05T03:24:48.407Z,69.62
2017-10-05T03:25:48.382Z,70
2017-10-05T03:26:48.046Z,69.62
2017-10-05T03:27:48.350Z,69.81
2017-10-05T03:28:48.339Z,69.52
2017-10-05T03:29:48.318Z,69.23
2017-10-05T03:30:47.987Z,69.23
2017-10-05T03:31:47.969Z,69.23
2017-10-05T03:32:48.269Z,69.04
2017-10-05T03:33:48.255Z,69.14
2017-10-05T03:34:47.917Z,68.85
2017-10-05T03:35:48.225Z,68.18
2017-10-05T03:36:48.203Z,68.09
2017-10-05T03:37:48.199Z,67.71
2017-10-05T03:38:48.170Z,67.71
2017-10-05T03:39:47.831Z,67.8
2017-10-05T03:40:47.817Z,67.61
2017-10-05T03:41:48.119Z,67.61
2017-10-05T03:42:48.105Z,67.23
2017-10-05T03:43:48.087Z,67.61
2017-10-05T03:44:48.070Z,67.52
2017-10-05T03:45:48.054Z,66.85
2017-10-05T03:46:47.721Z,66.75
2017-10-05T03:47:47.702Z,66.47
2017-10-05T03:48:47.686Z,66.75
2017-10-05T03:49:47.990Z,66.75
2017-10-05T03:50:47.973Z,67.14
2017-10-05T03:51:47.956Z,66.75
2017-10-05T03:52:47.617Z,66.94
2017-10-05T03:53:47.600Z,66.94
2017-10-05T03:54:47.915Z,66.75
2017-10-05T03:55:47.889Z,66.66
2017-10-05T03:56:47.877Z,66.38
2017-10-05T03:57:47.855Z,66.09
2017-10-05T03:58:47.838Z,66.18
2017-10-05T03:59:47.823Z,66.18
2017-10-05T04:00:47.485Z,65.99
2017-10-05T04:01:47.471Z,66.09
2017-10-05T04:02:47.451Z,65.99
2017-10-05T04:03:47.773Z,66.09
2017-10-05T04:04:47.746Z,66.09
2017-10-05T04:05:47.725Z,65.99
2017-10-05T04:06:47.708Z,66.09
2017-10-05T04:07:47.688Z,66.28
2017-10-05T04:08:47.681Z,65.7
2017-10-05T04:09:47.653Z,65.8
2017-10-05T04:10:47.639Z,65.7
2017-10-05T04:11:47.506Z,65.99
2017-10-05T04:12:47.286Z,65.8
2017-10-05T04:13:47.590Z,65.89
2017-10-05T04:14:47.251Z,65.89
2017-10-05T04:15:47.237Z,65.7
2017-10-05T04:16:47.217Z,65.7
2017-10-05T04:17:47.529Z,65.8
2017-10-05T04:18:47.507Z,65.89
2017-10-05T04:19:47.171Z,65.61
2017-10-05T04:20:47.475Z,65.8
2017-10-05T04:21:47.459Z,65.8
2017-10-05T04:22:47.452Z,65.89
2017-10-05T04:23:47.437Z,65.7
2017-10-05T04:24:47.405Z,65.8
2017-10-05T04:25:47.396Z,65.8
2017-10-05T04:26:47.052Z,65.8
2017-10-05T04:27:47.044Z,65.8
2017-10-05T04:28:47.343Z,65.52
2017-10-05T04:29:47.008Z,65.52
2017-10-05T04:30:47.316Z,65.7
2017-10-05T04:31:47.303Z,66.09
2017-10-05T04:32:47.276Z,66.75
2017-10-05T04:33:47.261Z,66.56
2017-10-05T04:34:47.248Z,66.75
2017-10-05T04:35:47.225Z,67.23
2017-10-05T04:36:47.209Z,67.33
2017-10-05T04:37:46.874Z,67.14
2017-10-05T04:38:46.858Z,67.23
2017-10-05T04:39:47.163Z,67.71
2017-10-05T04:40:47.153Z,67.71
2017-10-05T04:41:47.133Z,67.9
2017-10-05T04:42:46.792Z,67.8
2017-10-05T04:43:47.096Z,67.8
2017-10-05T04:44:46.759Z,67.8
2017-10-05T04:45:46.739Z,67.14
2017-10-05T04:46:47.045Z,67.33
2017-10-05T04:47:47.041Z,67.14
2017-10-05T04:48:47.021Z,67.52
2017-10-05T04:49:46.999Z,67.33
2017-10-05T04:50:46.980Z,67.33
2017-10-05T04:51:46.644Z,67.23
2017-10-05T04:52:46.951Z,67.23
2017-10-05T04:53:46.930Z,67.04
2017-10-05T04:54:46.594Z,67.23
2017-10-05T04:55:46.577Z,66.85
2017-10-05T04:56:46.906Z,66.85
2017-10-05T04:57:46.868Z,66.75
2017-10-05T04:58:46.527Z,66.75
2017-10-05T04:59:46.832Z,66.75
2017-10-05T05:00:46.815Z,67.04
2017-10-05T05:01:46.807Z,66.85
2017-10-05T05:02:46.794Z,66.66
2017-10-05T05:03:46.767Z,66.75
2017-10-05T05:04:46.748Z,66.75
2017-10-05T05:05:46.410Z,67.14
2017-10-05T05:06:46.398Z,67.42
2017-10-05T05:07:46.712Z,67.33
2017-10-05T05:08:46.683Z,66.85
2017-10-05T05:09:46.672Z,67.14
2017-10-05T05:10:46.653Z,67.42
2017-10-05T05:11:46.637Z,67.04
2017-10-05T05:12:46.615Z,67.23
2017-10-05T05:13:46.283Z,67.23
2017-10-05T05:14:46.266Z,67.23
2017-10-05T05:15:46.570Z,67.23
2017-10-05T05:16:46.547Z,67.23
2017-10-05T05:17:46.533Z,67.14
2017-10-05T05:18:46.518Z,67.23
2017-10-05T05:19:46.178Z,67.23
2017-10-05T05:20:46.164Z,67.33
2017-10-05T05:21:46.471Z,67.23
2017-10-05T05:22:46.131Z,67.42
2017-10-05T05:23:46.435Z,67.23
2017-10-05T05:24:46.420Z,67.04
2017-10-05T05:25:46.416Z,67.14
2017-10-05T05:26:46.069Z,67.33
2017-10-05T05:27:46.046Z,66.94
2017-10-05T05:28:46.353Z,66.75
2017-10-05T05:29:46.335Z,66.75
2017-10-05T05:30:46.319Z,66.38
2017-10-05T05:31:45.982Z,66.66
2017-10-05T05:32:46.292Z,66.38
2017-10-05T05:33:45.947Z,66.75
2017-10-05T05:34:46.254Z,66.56
2017-10-05T05:35:45.918Z,66.94
2017-10-05T05:36:46.221Z,66.38
2017-10-05T05:37:46.206Z,66.75
2017-10-05T05:38:46.191Z,66.85
2017-10-05T05:39:45.851Z,66.38
2017-10-05T05:40:45.837Z,66.66
2017-10-05T05:41:46.155Z,66.28
2017-10-05T05:42:46.124Z,66.75
2017-10-05T05:43:46.104Z,66.47
2017-10-05T05:44:45.765Z,66.18
2017-10-05T05:45:45.750Z,66.28
2017-10-05T05:46:46.055Z,66.09
2017-10-05T05:47:45.718Z,66.18
2017-10-05T05:48:46.022Z,65.99
2017-10-05T05:49:46.007Z,65.89
2017-10-05T05:50:45.994Z,65.8
2017-10-05T05:51:45.979Z,65.7
2017-10-05T05:52:45.955Z,65.7
2017-10-05T05:53:45.619Z,65.61
2017-10-05T05:54:45.924Z,65.61
2017-10-05T05:55:45.905Z,65.61
2017-10-05T05:56:45.892Z,65.52
2017-10-05T05:57:45.872Z,65.13
2017-10-05T05:58:45.536Z,65.42
2017-10-05T05:59:45.847Z,65.23
2017-10-05T06:00:45.504Z,65.33
2017-10-05T06:01:45.808Z,65.23
2017-10-05T06:02:45.473Z,64.75
2017-10-05T06:03:45.504Z,64.28
2017-10-05T06:04:45.438Z,64.47
2017-10-05T06:05:45.427Z,64.56
2017-10-05T06:06:45.408Z,64.47
2017-10-05T06:07:45.387Z,64.56
2017-10-05T06:08:45.694Z,64.85
2017-10-05T06:09:45.357Z,64.75
2017-10-05T06:10:45.341Z,64.28
2017-10-05T06:11:45.856Z,64.09
2017-10-05T06:12:45.627Z,64.28
2017-10-05T06:13:45.291Z,64.28
2017-10-05T06:14:45.595Z,63.8
2017-10-05T06:15:45.579Z,63.7
2017-10-05T06:16:45.562Z,63.51
2017-10-05T06:17:45.547Z,63.83
2017-10-05T06:18:45.212Z,63.92
2017-10-05T06:19:45.513Z,64.02
2017-10-05T06:20:45.180Z,63.83
2017-10-05T06:21:45.481Z,63.64
2017-10-05T06:22:45.149Z,63.73
2017-10-05T06:23:45.127Z,62.78
2017-10-05T06:24:45.445Z,63.54
2017-10-05T06:25:45.096Z,63.07
2017-10-05T06:26:45.412Z,63.16
2017-10-05T06:27:45.066Z,63.16
2017-10-05T06:28:45.382Z,63.07
2017-10-05T06:29:45.032Z,63.07
2017-10-05T06:30:45.012Z,63.07
2017-10-05T06:31:45.315Z,63.07
2017-10-05T06:32:45.300Z,63.16
2017-10-05T06:33:45.288Z,63.07
2017-10-05T06:34:45.268Z,62.68
2017-10-05T06:35:45.251Z,63.16
2017-10-05T06:36:44.915Z,62.88
2017-10-05T06:37:44.897Z,63.16
2017-10-05T06:38:45.199Z,62.49
2017-10-05T06:39:45.198Z,62.68
2017-10-05T06:40:44.849Z,63.16
2017-10-05T06:41:45.155Z,62.88
2017-10-05T06:42:45.140Z,62.97
2017-10-05T06:43:45.125Z,62.68
2017-10-05T06:44:44.782Z,62.3
2017-10-05T06:45:45.088Z,62.59
2017-10-05T06:46:45.068Z,62.59
2017-10-05T06:47:45.057Z,62.49
2017-10-05T06:48:45.038Z,62.88
2017-10-05T06:49:44.700Z,62.88
2017-10-05T06:50:44.681Z,62.59
2017-10-05T06:51:44.668Z,62.4
2017-10-05T06:52:44.973Z,62.21
2017-10-05T06:53:44.956Z,62.78
2017-10-05T06:54:44.942Z,62.4
2017-10-05T06:55:44.923Z,61.92
2017-10-05T06:56:44.587Z,62.21
2017-10-05T06:57:44.887Z,61.92
2017-10-05T06:58:44.563Z,61.63
2017-10-05T06:59:44.861Z,62.11
2017-10-05T07:00:44.842Z,61.35
2017-10-05T07:01:44.837Z,61.16
2017-10-05T07:02:44.491Z,61.16
2017-10-05T07:03:44.474Z,60.68
2017-10-05T07:04:44.777Z,60.87
2017-10-05T07:05:44.760Z,60.3
2017-10-05T07:06:44.745Z,59.73
2017-10-05T07:07:44.727Z,58.68
2017-10-05T07:08:44.712Z,57.92
2017-10-05T07:09:44.698Z,57.15
2017-10-05T07:10:44.360Z,56.58
2017-10-05T07:11:44.661Z,56.38
2017-10-05T07:12:44.650Z,56.87
2017-10-05T07:13:44.638Z,56.58
2017-10-05T07:14:44.620Z,56.29
2017-10-05T07:15:44.598Z,56.48
2017-10-05T07:16:44.580Z,55.72
2017-10-05T07:17:44.574Z,55.43
2017-10-05T07:18:44.232Z,55.34
2017-10-05T07:19:44.536Z,55.34
2017-10-05T07:20:44.524Z,54.67
2017-10-05T07:21:44.182Z,55.15
2017-10-05T07:22:44.490Z,55.15
2017-10-05T07:23:44.470Z,55.15
2017-10-05T07:24:44.451Z,55.15
2017-10-05T07:25:44.120Z,55.15
2017-10-05T07:26:44.427Z,54.38
2017-10-05T07:27:44.403Z,54.19
2017-10-05T07:28:44.413Z,54.38
2017-10-05T07:29:44.379Z,54.38
2017-10-05T07:30:44.035Z,54.1
2017-10-05T07:31:44.349Z,54.1
2017-10-05T07:32:44.002Z,54
2017-10-05T07:33:43.990Z,53.81
2017-10-05T07:34:44.293Z,53.62
2017-10-05T07:35:43.955Z,53.43
2017-10-05T07:36:44.265Z,53.72
2017-10-05T07:37:44.243Z,53.43
2017-10-05T07:38:44.226Z,53.53
2017-10-05T07:39:44.223Z,53.53
2017-10-05T07:40:43.878Z,53.43
2017-10-05T07:41:43.860Z,53.53
2017-10-05T07:42:44.162Z,53.43
2017-10-05T07:43:43.828Z,53.17
2017-10-05T07:44:43.812Z,53.05
2017-10-05T07:45:44.125Z,52.67
2017-10-05T07:46:44.099Z,52.38
2017-10-05T07:47:44.082Z,52
2017-10-05T07:48:43.747Z,52.09
2017-10-05T07:49:43.731Z,52.09
2017-10-05T07:50:43.715Z,52
2017-10-05T07:51:43.697Z,51.71
2017-10-05T07:52:43.685Z,52
2017-10-05T07:53:43.986Z,51.07
2017-10-05T07:54:43.651Z,51.45
2017-10-05T07:55:43.637Z,51.35
2017-10-05T07:56:43.618Z,50.59
2017-10-05T07:57:43.924Z,50.59
2017-10-05T07:58:43.589Z,50.49
2017-10-05T07:59:43.577Z,50.31
2017-10-05T08:00:43.886Z,50.12
2017-10-05T08:01:43.867Z,50.12
2017-10-05T08:02:43.530Z,50.21
2017-10-05T08:03:43.833Z,50.21
2017-10-05T08:04:43.815Z,50.02
2017-10-05T08:05:43.797Z,50.02
2017-10-05T08:06:43.782Z,50.12
2017-10-05T08:07:43.449Z,50.02
2017-10-05T08:08:43.428Z,49.54
2017-10-05T08:09:43.731Z,49.64
2017-10-05T08:10:43.714Z,49.54
2017-10-05T08:11:43.900Z,49.35
2017-10-05T08:12:43.687Z,49.26
2017-10-05T08:13:43.667Z,49.07
2017-10-05T08:14:43.328Z,48.78
2017-10-05T08:15:43.644Z,48.78
2017-10-05T08:16:43.623Z,48.68
2017-10-05T08:17:43.606Z,48.68
2017-10-05T08:18:43.586Z,48.3
2017-10-05T08:19:43.579Z,48.39
2017-10-05T08:20:43.559Z,48.49
2017-10-05T08:21:43.538Z,48.49
2017-10-05T08:22:43.526Z,48.39
2017-10-05T08:23:43.190Z,48.11
2017-10-05T08:24:43.177Z,48.13
2017-10-05T08:25:43.158Z,48.04
2017-10-05T08:26:43.464Z,48.04
2017-10-05T08:27:43.448Z,47.85
2017-10-05T08:28:43.119Z,48.23
2017-10-05T08:29:43.415Z,48.13
2017-10-05T08:30:43.091Z,44.31
2017-10-05T08:31:43.064Z,44.12
2017-10-05T08:32:43.370Z,44.31
2017-10-05T08:33:43.359Z,44.41
2017-10-05T08:34:43.338Z,44.41
2017-10-05T08:35:43.006Z,44.31
2017-10-05T08:36:43.304Z,44.41
2017-10-05T08:37:43.297Z,44.41
2017-10-05T08:38:42.953Z,44.31
2017-10-05T08:39:43.262Z,44.31
2017-10-05T08:40:43.247Z,44.51
2017-10-05T08:41:43.229Z,44.51
2017-10-05T08:42:42.891Z,44.51
2017-10-05T08:43:43.200Z,44.51
2017-10-05T08:44:42.861Z,44.51
2017-10-05T08:45:42.848Z,44.31
2017-10-05T08:46:43.149Z,44.51
2017-10-05T08:47:42.813Z,44.31
2017-10-05T08:48:43.120Z,44.31
2017-10-05T08:49:43.106Z,44.81
2017-10-05T08:50:43.092Z,44.22
2017-10-05T08:51:43.074Z,44.22
2017-10-05T08:52:42.737Z,44.24
2017-10-05T08:53:43.041Z,44.81
2017-10-05T08:54:43.026Z,43.95
2017-10-05T08:55:42.693Z,44.05
2017-10-05T08:56:43.000Z,43.95
2017-10-05T08:57:42.659Z,44.05
2017-10-05T08:58:42.968Z,44.43
2017-10-05T08:59:42.635Z,44.62
2017-10-05T09:00:42.952Z,45.48
2017-10-05T09:01:42.928Z,45.48
2017-10-05T09:02:42.907Z,45.77
2017-10-05T09:03:42.572Z,46.15
2017-10-05T09:04:42.557Z,46.06
2017-10-05T09:05:42.859Z,45.87
2017-10-05T09:06:42.856Z,46.06
2017-10-05T09:07:42.827Z,45.96
2017-10-05T09:08:42.817Z,45.87
2017-10-05T09:09:42.798Z,45.96
2017-10-05T09:10:42.462Z,46.15
2017-10-05T09:11:42.448Z,45.87
2017-10-05T09:12:42.755Z,45.77
2017-10-05T09:13:42.415Z,44.91
2017-10-05T09:14:42.750Z,44.91
2017-10-05T09:15:42.383Z,45.1
2017-10-05T09:16:42.701Z,44.34
2017-10-05T09:17:42.354Z,44.91
2017-10-05T09:18:42.664Z,44.81
2017-10-05T09:19:42.643Z,44.34
2017-10-05T09:20:42.631Z,44.84
2017-10-05T09:21:42.294Z,43.69
2017-10-05T09:22:42.278Z,44.55
2017-10-05T09:23:42.270Z,44.07
2017-10-05T09:24:42.567Z,43.98
2017-10-05T09:25:42.236Z,43.59
2017-10-05T09:26:42.224Z,43.3
2017-10-05T09:27:42.553Z,43.21
2017-10-05T09:28:42.191Z,42.83
2017-10-05T09:29:42.500Z,42.93
2017-10-05T09:30:42.158Z,43.5
2017-10-05T09:31:42.469Z,42.44
2017-10-05T09:32:42.453Z,42.16
2017-10-05T09:33:42.439Z,41.78
2017-10-05T09:34:42.419Z,41.97
2017-10-05T09:35:42.087Z,41.49
2017-10-05T09:36:42.391Z,41.2
2017-10-05T09:37:42.381Z,41.01
2017-10-05T09:38:42.040Z,40.34
2017-10-05T09:39:42.358Z,40.92
2017-10-05T09:40:42.015Z,40.92
2017-10-05T09:41:42.002Z,40.63
2017-10-05T09:42:42.303Z,40.34
2017-10-05T09:43:42.295Z,40.25
2017-10-05T09:44:42.273Z,40.06
2017-10-05T09:45:42.261Z,40.25
2017-10-05T09:46:41.925Z,40.25
2017-10-05T09:47:42.236Z,39.67
2017-10-05T09:48:42.219Z,39.67
2017-10-05T09:49:42.202Z,39.12
2017-10-05T09:50:42.184Z,39.39
2017-10-05T09:51:42.174Z,39.22
2017-10-05T09:52:41.837Z,39.03
2017-10-05T09:53:41.825Z,39.03
2017-10-05T09:54:41.809Z,38.64
2017-10-05T09:55:41.803Z,38.83
2017-10-05T09:56:41.786Z,38.54
2017-10-05T09:57:42.088Z,38.74
2017-10-05T09:58:41.756Z,38.83
2017-10-05T09:59:41.741Z,38.74
2017-10-05T10:00:42.042Z,38.54
2017-10-05T10:01:42.032Z,37.21
2017-10-05T10:02:42.021Z,38.07
2017-10-05T10:03:41.685Z,38.26
2017-10-05T10:04:41.989Z,37.78
2017-10-05T10:05:41.655Z,37.88
2017-10-05T10:06:41.962Z,37.3
2017-10-05T10:07:41.628Z,35.77
2017-10-05T10:08:41.612Z,35.1
2017-10-05T10:09:41.602Z,35.49
2017-10-05T10:10:41.907Z,37.78
2017-10-05T10:11:42.091Z,43.52
2017-10-05T10:12:41.878Z,46.2
2017-10-05T10:13:41.545Z,48.9
2017-10-05T10:14:41.535Z,53.56
2017-10-05T10:15:41.835Z,54.43
2017-10-05T10:16:41.820Z,56.91
2017-10-05T10:17:41.813Z,57.68
2017-10-05T10:18:41.482Z,58.92
2017-10-05T10:19:41.778Z,58.34
2017-10-05T10:20:41.775Z,57.39
2017-10-05T10:21:41.438Z,57.29
2017-10-05T10:22:41.417Z,59.01
2017-10-05T10:23:41.406Z,60.35
2017-10-05T10:24:41.718Z,59.88
2017-10-05T10:25:41.700Z,61.22
2017-10-05T10:26:41.688Z,64.37
2017-10-05T10:27:41.350Z,67.14
2017-10-05T10:28:41.662Z,71.07
2017-10-05T10:29:41.321Z,70.4
2017-10-05T10:30:41.307Z,72.12
2017-10-05T10:31:41.617Z,71.64
2017-10-05T10:32:41.601Z,86.18
2017-10-05T10:33:41.267Z,90.48
2017-10-05T10:34:41.256Z,91.83
2017-10-05T10:35:41.563Z,98.61
2017-10-05T10:36:41.230Z,99.99
2017-10-05T10:37:41.215Z,99.99
2017-10-05T10:38:41.198Z,99.99
2017-10-05T10:39:41.190Z,99.99
2017-10-05T10:40:41.500Z,99.99
2017-10-05T10:41:41.493Z,99.99
2017-10-05T10:42:41.146Z,99.99
2017-10-05T10:43:41.452Z,99.99
2017-10-05T10:44:41.437Z,99.99
2017-10-05T10:45:41.423Z,99.99
2017-10-05T10:46:41.414Z,99.99
2017-10-05T10:47:41.426Z,99.99
2017-10-05T10:48:41.066Z,99.99
2017-10-05T10:49:41.053Z,99.99
2017-10-05T10:50:41.359Z,99.99
2017-10-05T10:51:41.028Z,99.99
2017-10-05T10:52:41.014Z,99.99
2017-10-05T10:53:41.322Z,99.99
2017-10-05T10:54:41.308Z,99.99
2017-10-05T10:55:41.293Z,99.99
2017-10-05T10:56:40.960Z,99.99
2017-10-05T10:57:41.266Z,99.99
2017-10-05T10:58:41.258Z,99.99
2017-10-05T10:59:41.240Z,99.99
2017-10-05T11:00:40.909Z,99.99
2017-10-05T11:01:41.220Z,99.99
2017-10-05T11:02:41.207Z,99.99
2017-10-05T11:03:41.190Z,99.99
2017-10-05T11:04:41.178Z,99.99
2017-10-05T11:05:41.167Z,99.99
2017-10-05T11:06:41.154Z,99.99
2017-10-05T11:07:40.821Z,99.99
2017-10-05T11:08:41.133Z,99.99
2017-10-05T11:09:40.798Z,99.99
2017-10-05T11:10:41.115Z,99.99
2017-10-05T11:11:41.098Z,99.99
2017-10-05T11:12:41.081Z,99.99
2017-10-05T11:13:40.747Z,99.99
2017-10-05T11:14:41.056Z,99.99
2017-10-05T11:15:41.044Z,99.99
2017-10-05T11:16:40.712Z,99.99
2017-10-05T11:17:40.727Z,99.99
2017-10-05T11:18:40.696Z,99.99
2017-10-05T11:19:40.686Z,99.99
2017-10-05T11:20:40.665Z,99.99
2017-10-05T11:21:40.660Z,99.99
2017-10-05T11:22:40.963Z,99.99
2017-10-05T11:23:40.633Z,99.99
2017-10-05T11:24:40.938Z,99.99
2017-10-05T11:25:40.927Z,99.99
2017-10-05T11:26:40.597Z,99.99
2017-10-05T11:27:40.909Z,99.99
2017-10-05T11:28:40.895Z,99.99
2017-10-05T11:29:40.564Z,99.99
2017-10-05T11:30:40.870Z,99.99
2017-10-05T11:31:40.855Z,99.99
2017-10-05T11:32:40.524Z,99.99
2017-10-05T11:33:40.515Z,99.99
2017-10-05T11:34:40.826Z,99.99
2017-10-05T11:35:40.820Z,99.99
2017-10-05T11:36:40.804Z,99.99
2017-10-05T11:37:40.474Z,99.99
2017-10-05T11:38:40.784Z,99.99
2017-10-05T11:39:40.449Z,99.99
2017-10-05T11:40:40.437Z,99.99
2017-10-05T11:41:40.427Z,99.99
2017-10-05T11:42:40.745Z,99.99
2017-10-05T11:43:40.400Z,99.99
2017-10-05T11:44:40.729Z,99.99
2017-10-05T11:45:40.381Z,99.99
2017-10-05T11:46:40.692Z,99.99
2017-10-05T11:47:40.353Z,99.99
2017-10-05T11:48:40.339Z,99.99
2017-10-05T11:49:40.663Z,99.99
2017-10-05T11:50:40.641Z,99.99
2017-10-05T11:51:40.310Z,99.99
2017-10-05T11:52:40.614Z,99.99
2017-10-05T11:53:40.613Z,99.99
2017-10-05T11:54:40.597Z,99.99
2017-10-05T11:55:40.578Z,99.99
2017-10-05T11:56:40.583Z,99.99
2017-10-05T11:57:40.550Z,99.99
2017-10-05T11:58:40.545Z,99.99
2017-10-05T11:59:40.209Z,99.99
2017-10-05T12:00:40.525Z,99.99
2017-10-05T12:01:40.186Z,99.99
2017-10-05T12:02:40.180Z,99.99
2017-10-05T12:03:40.547Z,99.99
2017-10-05T12:04:40.157Z,99.99
2017-10-05T12:05:40.462Z,99.99
2017-10-05T12:06:40.141Z,99.99
2017-10-05T12:07:40.449Z,99.99
2017-10-05T12:08:40.115Z,99.99
2017-10-05T12:09:40.107Z,99.99
2017-10-05T12:10:40.096Z,99.99
2017-10-05T12:11:40.288Z,99.99
2017-10-05T12:12:40.398Z,99.99
2017-10-05T12:13:40.394Z,99.99
2017-10-05T12:14:40.054Z,99.99
2017-10-05T12:15:40.366Z,99.99
2017-10-05T12:16:40.358Z,99.99
2017-10-05T12:17:40.347Z,99.99
2017-10-05T12:18:40.337Z,99.99
2017-10-05T12:19:40.330Z,99.99
2017-10-05T12:20:39.991Z,99.99
2017-10-05T12:21:40.307Z,99.99
2017-10-05T12:22:39.970Z,99.99
2017-10-05T12:23:40.281Z,99.99
2017-10-05T12:24:39.951Z,99.99
2017-10-05T12:25:39.943Z,99.99
2017-10-05T12:26:39.931Z,99.99
2017-10-05T12:27:40.238Z,99.99
2017-10-05T12:28:40.231Z,99.99
2017-10-05T12:29:40.213Z,99.99
2017-10-05T12:30:40.201Z,99.99
2017-10-05T12:31:40.196Z,99.99
2017-10-05T12:32:40.186Z,99.99
2017-10-05T12:33:39.854Z,99.99
2017-10-05T12:34:39.843Z,99.99
2017-10-05T12:35:40.161Z,99.99
2017-10-05T12:36:39.827Z,99.99
2017-10-05T12:37:39.814Z,99.99
2017-10-05T12:38:39.806Z,99.99
2017-10-05T12:39:40.122Z,99.99
2017-10-05T12:40:40.122Z,99.99
2017-10-05T12:41:40.110Z,99.99
2017-10-05T12:42:39.780Z,99.99
2017-10-05T12:43:39.782Z,99.99
2017-10-05T12:44:39.775Z,99.99
2017-10-05T12:45:39.767Z,99.99
2017-10-05T12:46:40.090Z,99.99
2017-10-05T12:47:40.077Z,99.99
2017-10-05T12:48:39.757Z,99.99
2017-10-05T12:49:39.758Z,99.99
2017-10-05T12:50:39.746Z,99.99
2017-10-05T12:51:39.742Z,99.99
2017-10-05T12:52:39.741Z,99.99
2017-10-05T12:53:39.736Z,99.99
2017-10-05T12:54:39.729Z,99.99